sensor_id;sensor_type;location;lat;lon;timestamp;temperature;humidity
56761;DHT22;42633;44.494;11.356;2022-09-09T00:02:30;24.50;96.80
56761;DHT22;42633;44.494;11.356;2022-09-09T00:05:40;24.50;96.80
56761;DHT22;42633;44.494;11.356;2022-09-09T00:08:58;24.40;96.90
56761;DHT22;42633;44.494;11.356;2022-09-09T00:15:21;24.30;97.00
56761;DHT22;42633;44.494;11.356;2022-09-09T00:22:03;24.30;97.20
56761;DHT22;42633;44.494;11.356;2022-09-09T00:25:14;24.30;97.20
56761;DHT22;42633;44.494;11.356;2022-09-09T00:28:23;24.30;97.50
56761;DHT22;42633;44.494;11.356;2022-09-09T00:31:30;24.20;97.60
56761;DHT22;42633;44.494;11.356;2022-09-09T00:34:36;24.10;97.70
56761;DHT22;42633;44.494;11.356;2022-09-09T00:37:44;24.00;97.90
56761;DHT22;42633;44.494;11.356;2022-09-09T00:40:58;24.00;98.30
56761;DHT22;42633;44.494;11.356;2022-09-09T00:47:45;23.80;98.70
56761;DHT22;42633;44.494;11.356;2022-09-09T00:50:58;23.80;98.90
56761;DHT22;42633;44.494;11.356;2022-09-09T00:57:28;23.70;99.40
56761;DHT22;42633;44.494;11.356;2022-09-09T01:00:54;23.70;99.70
56761;DHT22;42633;44.494;11.356;2022-09-09T01:04:06;23.50;99.90
56761;DHT22;42633;44.494;11.356;2022-09-09T01:07:17;23.40;99.90
56761;DHT22;42633;44.494;11.356;2022-09-09T01:10:51;23.20;99.90
56761;DHT22;42633;44.494;11.356;2022-09-09T01:14:24;23.20;99.90
56761;DHT22;42633;44.494;11.356;2022-09-09T01:18:12;23.10;99.90
56761;DHT22;42633;44.494;11.356;2022-09-09T01:28:27;22.90;99.90
56761;DHT22;42633;44.494;11.356;2022-09-09T01:31:40;22.80;99.90
56761;DHT22;42633;44.494;11.356;2022-09-09T01:34:45;22.80;99.90
56761;DHT22;42633;44.494;11.356;2022-09-09T01:37:50;22.80;99.90
56761;DHT22;42633;44.494;11.356;2022-09-09T01:40:54;22.80;99.90
56761;DHT22;42633;44.494;11.356;2022-09-09T01:44:06;22.80;99.90
56761;DHT22;42633;44.494;11.356;2022-09-09T01:47:13;22.80;99.90
56761;DHT22;42633;44.494;11.356;2022-09-09T01:50:35;22.80;99.90
56761;DHT22;42633;44.494;11.356;2022-09-09T01:53:41;22.70;99.90
56761;DHT22;42633;44.494;11.356;2022-09-09T02:00:10;22.50;99.90
56761;DHT22;42633;44.494;11.356;2022-09-09T02:03:27;22.50;99.90
56761;DHT22;42633;44.494;11.356;2022-09-09T02:06:43;22.50;99.90
56761;DHT22;42633;44.494;11.356;2022-09-09T02:10:24;22.50;99.90
56761;DHT22;42633;44.494;11.356;2022-09-09T02:13:37;22.50;99.90
56761;DHT22;42633;44.494;11.356;2022-09-09T02:16:52;22.40;99.90
56761;DHT22;42633;44.494;11.356;2022-09-09T02:20:10;22.40;99.90
56761;DHT22;42633;44.494;11.356;2022-09-09T02:23:21;22.40;99.90
56761;DHT22;42633;44.494;11.356;2022-09-09T02:26:32;22.40;99.90
56761;DHT22;42633;44.494;11.356;2022-09-09T02:29:43;22.40;99.90
56761;DHT22;42633;44.494;11.356;2022-09-09T02:32:53;22.40;99.90
56761;DHT22;42633;44.494;11.356;2022-09-09T02:36:08;22.40;99.90
56761;DHT22;42633;44.494;11.356;2022-09-09T02:39:13;22.30;99.90
56761;DHT22;42633;44.494;11.356;2022-09-09T02:42:17;22.40;99.90
56761;DHT22;42633;44.494;11.356;2022-09-09T02:45:26;22.30;99.90
56761;DHT22;42633;44.494;11.356;2022-09-09T02:48:53;22.30;99.90
56761;DHT22;42633;44.494;11.356;2022-09-09T02:52:08;22.20;99.90
56761;DHT22;42633;44.494;11.356;2022-09-09T02:55:24;22.20;99.90
56761;DHT22;42633;44.494;11.356;2022-09-09T02:58:34;22.20;99.90
56761;DHT22;42633;44.494;11.356;2022-09-09T03:01:42;22.20;99.90
56761;DHT22;42633;44.494;11.356;2022-09-09T03:04:48;22.20;99.90
56761;DHT22;42633;44.494;11.356;2022-09-09T03:07:56;22.20;99.90
56761;DHT22;42633;44.494;11.356;2022-09-09T03:11:00;22.20;99.90
56761;DHT22;42633;44.494;11.356;2022-09-09T03:14:12;22.20;99.90
56761;DHT22;42633;44.494;11.356;2022-09-09T03:17:31;22.10;99.90
56761;DHT22;42633;44.494;11.356;2022-09-09T03:20:36;22.10;99.90
56761;DHT22;42633;44.494;11.356;2022-09-09T03:23:40;22.10;99.90
56761;DHT22;42633;44.494;11.356;2022-09-09T03:26:45;22.10;99.90
56761;DHT22;42633;44.494;11.356;2022-09-09T03:29:53;22.00;99.90
56761;DHT22;42633;44.494;11.356;2022-09-09T03:33:01;22.00;99.90
56761;DHT22;42633;44.494;11.356;2022-09-09T03:36:09;22.00;99.90
56761;DHT22;42633;44.494;11.356;2022-09-09T03:39:15;22.00;99.90
56761;DHT22;42633;44.494;11.356;2022-09-09T03:42:21;22.00;99.90
56761;DHT22;42633;44.494;11.356;2022-09-09T03:45:29;22.00;99.90
56761;DHT22;42633;44.494;11.356;2022-09-09T03:48:34;22.00;99.90
56761;DHT22;42633;44.494;11.356;2022-09-09T03:51:38;22.00;99.90
56761;DHT22;42633;44.494;11.356;2022-09-09T03:54:43;22.00;99.90
56761;DHT22;42633;44.494;11.356;2022-09-09T03:57:48;21.90;99.90
56761;DHT22;42633;44.494;11.356;2022-09-09T04:00:56;21.90;99.90
56761;DHT22;42633;44.494;11.356;2022-09-09T04:04:03;21.90;99.90
56761;DHT22;42633;44.494;11.356;2022-09-09T04:07:08;21.90;99.90
56761;DHT22;42633;44.494;11.356;2022-09-09T04:10:12;21.80;99.90
56761;DHT22;42633;44.494;11.356;2022-09-09T04:13:21;21.80;99.90
56761;DHT22;42633;44.494;11.356;2022-09-09T04:16:26;21.80;99.90
56761;DHT22;42633;44.494;11.356;2022-09-09T04:19:33;21.80;99.90
56761;DHT22;42633;44.494;11.356;2022-09-09T04:22:37;21.80;99.90
56761;DHT22;42633;44.494;11.356;2022-09-09T04:25:47;21.70;99.90
56761;DHT22;42633;44.494;11.356;2022-09-09T04:28:52;21.70;99.90
56761;DHT22;42633;44.494;11.356;2022-09-09T04:32:05;21.70;99.90
56761;DHT22;42633;44.494;11.356;2022-09-09T04:35:12;21.70;99.90
56761;DHT22;42633;44.494;11.356;2022-09-09T04:38:24;21.70;99.90
56761;DHT22;42633;44.494;11.356;2022-09-09T04:41:29;21.70;99.90
56761;DHT22;42633;44.494;11.356;2022-09-09T04:44:36;21.70;99.90
56761;DHT22;42633;44.494;11.356;2022-09-09T04:47:40;21.70;99.90
56761;DHT22;42633;44.494;11.356;2022-09-09T04:51:00;21.70;99.90
56761;DHT22;42633;44.494;11.356;2022-09-09T04:54:08;21.70;99.90
56761;DHT22;42633;44.494;11.356;2022-09-09T04:57:16;21.70;99.90
56761;DHT22;42633;44.494;11.356;2022-09-09T05:00:21;21.70;99.90
56761;DHT22;42633;44.494;11.356;2022-09-09T05:03:27;21.70;99.90
56761;DHT22;42633;44.494;11.356;2022-09-09T05:06:32;21.70;99.90
56761;DHT22;42633;44.494;11.356;2022-09-09T05:09:38;21.70;99.90
56761;DHT22;42633;44.494;11.356;2022-09-09T05:12:42;21.70;99.90
56761;DHT22;42633;44.494;11.356;2022-09-09T05:15:53;21.80;99.90
56761;DHT22;42633;44.494;11.356;2022-09-09T05:18:58;21.80;99.90
56761;DHT22;42633;44.494;11.356;2022-09-09T05:22:05;21.80;99.90
56761;DHT22;42633;44.494;11.356;2022-09-09T05:25:17;21.90;99.90
56761;DHT22;42633;44.494;11.356;2022-09-09T05:28:24;21.90;99.90
56761;DHT22;42633;44.494;11.356;2022-09-09T05:31:30;22.00;99.90
56761;DHT22;42633;44.494;11.356;2022-09-09T05:34:38;22.00;99.90
56761;DHT22;42633;44.494;11.356;2022-09-09T05:37:43;22.00;99.90
56761;DHT22;42633;44.494;11.356;2022-09-09T05:40:47;22.00;99.90
56761;DHT22;42633;44.494;11.356;2022-09-09T05:43:53;22.10;99.90
56761;DHT22;42633;44.494;11.356;2022-09-09T05:46:59;22.10;99.90
56761;DHT22;42633;44.494;11.356;2022-09-09T05:50:04;22.20;99.90
56761;DHT22;42633;44.494;11.356;2022-09-09T05:53:09;22.20;99.90
56761;DHT22;42633;44.494;11.356;2022-09-09T05:56:23;22.30;99.90
56761;DHT22;42633;44.494;11.356;2022-09-09T05:59:30;22.30;99.90
56761;DHT22;42633;44.494;11.356;2022-09-09T06:02:37;22.40;99.90
56761;DHT22;42633;44.494;11.356;2022-09-09T06:05:42;22.40;99.90
56761;DHT22;42633;44.494;11.356;2022-09-09T06:08:50;22.50;99.90
56761;DHT22;42633;44.494;11.356;2022-09-09T06:11:55;22.60;99.90
56761;DHT22;42633;44.494;11.356;2022-09-09T06:15:01;22.70;99.90
56761;DHT22;42633;44.494;11.356;2022-09-09T06:18:05;22.80;99.90
56761;DHT22;42633;44.494;11.356;2022-09-09T06:21:17;22.90;99.90
56761;DHT22;42633;44.494;11.356;2022-09-09T06:24:23;23.00;99.90
56761;DHT22;42633;44.494;11.356;2022-09-09T06:27:27;23.10;99.90
56761;DHT22;42633;44.494;11.356;2022-09-09T06:30:32;23.20;99.90
56761;DHT22;42633;44.494;11.356;2022-09-09T06:33:39;23.30;99.90
56761;DHT22;42633;44.494;11.356;2022-09-09T06:36:46;23.40;99.90
56761;DHT22;42633;44.494;11.356;2022-09-09T06:39:51;23.50;99.90
56761;DHT22;42633;44.494;11.356;2022-09-09T06:43:02;23.60;99.90
56761;DHT22;42633;44.494;11.356;2022-09-09T06:46:22;23.80;99.90
56761;DHT22;42633;44.494;11.356;2022-09-09T06:49:36;23.90;99.90
56761;DHT22;42633;44.494;11.356;2022-09-09T06:52:46;24.00;99.90
56761;DHT22;42633;44.494;11.356;2022-09-09T06:55:52;24.20;99.90
56761;DHT22;42633;44.494;11.356;2022-09-09T06:58:58;24.20;99.90
56761;DHT22;42633;44.494;11.356;2022-09-09T07:02:05;24.30;99.90
56761;DHT22;42633;44.494;11.356;2022-09-09T07:05:09;24.40;99.90
56761;DHT22;42633;44.494;11.356;2022-09-09T07:08:14;24.40;99.90
56761;DHT22;42633;44.494;11.356;2022-09-09T07:11:24;24.40;99.90
56761;DHT22;42633;44.494;11.356;2022-09-09T07:14:29;24.60;99.90
56761;DHT22;42633;44.494;11.356;2022-09-09T07:17:40;24.80;99.90
56761;DHT22;42633;44.494;11.356;2022-09-09T07:20:55;25.00;99.90
56761;DHT22;42633;44.494;11.356;2022-09-09T07:24:03;25.10;99.90
56761;DHT22;42633;44.494;11.356;2022-09-09T07:27:11;25.30;99.90
56761;DHT22;42633;44.494;11.356;2022-09-09T07:30:16;25.40;99.90
56761;DHT22;42633;44.494;11.356;2022-09-09T07:33:20;25.50;99.90
56761;DHT22;42633;44.494;11.356;2022-09-09T07:36:28;25.60;99.90
56761;DHT22;42633;44.494;11.356;2022-09-09T07:39:33;25.80;99.50
56761;DHT22;42633;44.494;11.356;2022-09-09T07:42:37;25.90;99.00
56761;DHT22;42633;44.494;11.356;2022-09-09T07:45:41;26.10;98.60
56761;DHT22;42633;44.494;11.356;2022-09-09T07:48:47;26.30;98.20
56761;DHT22;42633;44.494;11.356;2022-09-09T07:51:56;26.50;97.50
56761;DHT22;42633;44.494;11.356;2022-09-09T07:55:02;26.70;96.80
56761;DHT22;42633;44.494;11.356;2022-09-09T07:58:07;26.80;97.00
56761;DHT22;42633;44.494;11.356;2022-09-09T08:01:37;26.90;95.10
56761;DHT22;42633;44.494;11.356;2022-09-09T08:04:44;27.10;93.00
56761;DHT22;42633;44.494;11.356;2022-09-09T08:07:49;27.30;92.40
56761;DHT22;42633;44.494;11.356;2022-09-09T08:10:54;27.40;91.90
56761;DHT22;42633;44.494;11.356;2022-09-09T08:14:06;27.60;91.80
56761;DHT22;42633;44.494;11.356;2022-09-09T08:17:12;27.80;91.00
56761;DHT22;42633;44.494;11.356;2022-09-09T08:20:16;28.00;90.90
56761;DHT22;42633;44.494;11.356;2022-09-09T08:23:20;28.00;90.40
56761;DHT22;42633;44.494;11.356;2022-09-09T08:26:30;28.10;89.10
56761;DHT22;42633;44.494;11.356;2022-09-09T08:29:34;28.20;89.40
56761;DHT22;42633;44.494;11.356;2022-09-09T08:32:39;28.40;89.70
56761;DHT22;42633;44.494;11.356;2022-09-09T08:35:51;28.60;88.70
56761;DHT22;42633;44.494;11.356;2022-09-09T08:38:57;28.70;87.50
56761;DHT22;42633;44.494;11.356;2022-09-09T08:45:34;28.90;86.10
56761;DHT22;42633;44.494;11.356;2022-09-09T08:48:52;29.00;85.30
56761;DHT22;42633;44.494;11.356;2022-09-09T08:51:59;29.00;84.70
56761;DHT22;42633;44.494;11.356;2022-09-09T08:58:35;29.20;81.50
56761;DHT22;42633;44.494;11.356;2022-09-09T09:02:00;29.40;81.00
56761;DHT22;42633;44.494;11.356;2022-09-09T09:08:49;29.70;83.10
56761;DHT22;42633;44.494;11.356;2022-09-09T09:11:58;29.60;85.70
56761;DHT22;42633;44.494;11.356;2022-09-09T09:15:24;29.50;89.50
56761;DHT22;42633;44.494;11.356;2022-09-09T09:18:31;29.30;88.70
56761;DHT22;42633;44.494;11.356;2022-09-09T09:21:39;29.20;90.10
56761;DHT22;42633;44.494;11.356;2022-09-09T09:28:21;29.30;90.00
56761;DHT22;42633;44.494;11.356;2022-09-09T09:31:32;29.20;88.80
56761;DHT22;42633;44.494;11.356;2022-09-09T09:34:36;29.10;90.00
56761;DHT22;42633;44.494;11.356;2022-09-09T09:37:41;29.20;90.40
56761;DHT22;42633;44.494;11.356;2022-09-09T09:40:53;29.50;90.50
56761;DHT22;42633;44.494;11.356;2022-09-09T09:44:18;29.40;90.30
56761;DHT22;42633;44.494;11.356;2022-09-09T09:47:25;29.00;90.90
56761;DHT22;42633;44.494;11.356;2022-09-09T09:50:59;29.10;90.50
56761;DHT22;42633;44.494;11.356;2022-09-09T09:54:28;29.30;90.30
56761;DHT22;42633;44.494;11.356;2022-09-09T09:57:38;29.00;89.50
56761;DHT22;42633;44.494;11.356;2022-09-09T10:00:51;28.70;90.30
56761;DHT22;42633;44.494;11.356;2022-09-09T10:04:01;28.80;90.20
56761;DHT22;42633;44.494;11.356;2022-09-09T10:07:21;28.70;90.60
56761;DHT22;42633;44.494;11.356;2022-09-09T10:10:35;28.70;91.20
56761;DHT22;42633;44.494;11.356;2022-09-09T10:17:36;29.60;89.90
56761;DHT22;42633;44.494;11.356;2022-09-09T10:20:58;30.10;87.50
56761;DHT22;42633;44.494;11.356;2022-09-09T10:41:19;29.80;87.40
56761;DHT22;42633;44.494;11.356;2022-09-09T10:54:37;30.20;85.20
56761;DHT22;42633;44.494;11.356;2022-09-09T10:57:45;30.40;84.70
56761;DHT22;42633;44.494;11.356;2022-09-09T11:00:55;30.00;85.00
56761;DHT22;42633;44.494;11.356;2022-09-09T11:04:25;29.40;85.00
56761;DHT22;42633;44.494;11.356;2022-09-09T11:11:20;29.50;86.00
56761;DHT22;42633;44.494;11.356;2022-09-09T11:14:36;29.80;82.20
56761;DHT22;42633;44.494;11.356;2022-09-09T11:17:52;30.20;81.60
56761;DHT22;42633;44.494;11.356;2022-09-09T11:21:01;30.00;80.90
56761;DHT22;42633;44.494;11.356;2022-09-09T11:24:18;29.80;81.70
56761;DHT22;42633;44.494;11.356;2022-09-09T11:30:54;30.20;79.50
56761;DHT22;42633;44.494;11.356;2022-09-09T11:38:03;30.80;77.50
56761;DHT22;42633;44.494;11.356;2022-09-09T11:41:09;31.10;75.80
56761;DHT22;42633;44.494;11.356;2022-09-09T11:44:34;31.30;74.50
56761;DHT22;42633;44.494;11.356;2022-09-09T11:47:38;31.20;73.60
56761;DHT22;42633;44.494;11.356;2022-09-09T11:50:43;31.10;73.40
56761;DHT22;42633;44.494;11.356;2022-09-09T11:54:25;31.30;73.00
56761;DHT22;42633;44.494;11.356;2022-09-09T11:57:36;31.40;72.80
56761;DHT22;42633;44.494;11.356;2022-09-09T12:00:42;31.40;72.50
56761;DHT22;42633;44.494;11.356;2022-09-09T12:03:52;31.80;72.20
56761;DHT22;42633;44.494;11.356;2022-09-09T12:10:23;32.60;68.90
56761;DHT22;42633;44.494;11.356;2022-09-09T12:13:29;32.30;68.80
56761;DHT22;42633;44.494;11.356;2022-09-09T12:16:36;32.20;69.30
56761;DHT22;42633;44.494;11.356;2022-09-09T12:19:42;32.40;68.80
56761;DHT22;42633;44.494;11.356;2022-09-09T12:26:31;32.60;68.60
56761;DHT22;42633;44.494;11.356;2022-09-09T12:32:46;32.80;68.10
56761;DHT22;42633;44.494;11.356;2022-09-09T12:35:58;32.40;67.70
56761;DHT22;42633;44.494;11.356;2022-09-09T12:39:47;31.90;68.60
56761;DHT22;42633;44.494;11.356;2022-09-09T12:42:53;31.60;69.00
56761;DHT22;42633;44.494;11.356;2022-09-09T12:46:03;31.30;69.80
56761;DHT22;42633;44.494;11.356;2022-09-09T12:52:36;31.20;70.60
56761;DHT22;42633;44.494;11.356;2022-09-09T12:55:51;31.40;69.60
56761;DHT22;42633;44.494;11.356;2022-09-09T12:58:57;31.20;70.10
56761;DHT22;42633;44.494;11.356;2022-09-09T13:02:02;30.90;70.90
56761;DHT22;42633;44.494;11.356;2022-09-09T13:05:15;30.80;71.30
56761;DHT22;42633;44.494;11.356;2022-09-09T13:08:20;30.80;71.00
56761;DHT22;42633;44.494;11.356;2022-09-09T13:11:29;30.90;71.30
56761;DHT22;42633;44.494;11.356;2022-09-09T13:14:36;31.10;71.10
56761;DHT22;42633;44.494;11.356;2022-09-09T13:17:56;30.70;71.80
56761;DHT22;42633;44.494;11.356;2022-09-09T13:21:01;30.60;71.60
56761;DHT22;42633;44.494;11.356;2022-09-09T13:24:20;30.50;72.10
56761;DHT22;42633;44.494;11.356;2022-09-09T13:27:31;30.70;71.40
56761;DHT22;42633;44.494;11.356;2022-09-09T13:30:37;31.20;70.70
56761;DHT22;42633;44.494;11.356;2022-09-09T13:33:44;31.50;70.70
56761;DHT22;42633;44.494;11.356;2022-09-09T13:36:49;31.90;69.60
56761;DHT22;42633;44.494;11.356;2022-09-09T13:39:54;32.60;68.90
56761;DHT22;42633;44.494;11.356;2022-09-09T13:42:58;33.00;67.60
56761;DHT22;42633;44.494;11.356;2022-09-09T13:46:05;32.30;68.30
56761;DHT22;42633;44.494;11.356;2022-09-09T13:49:28;32.00;69.20
56761;DHT22;42633;44.494;11.356;2022-09-09T13:52:33;31.80;69.50
56761;DHT22;42633;44.494;11.356;2022-09-09T13:55:38;31.70;70.20
56761;DHT22;42633;44.494;11.356;2022-09-09T13:58:43;31.40;72.10
56761;DHT22;42633;44.494;11.356;2022-09-09T14:01:47;30.80;74.50
56761;DHT22;42633;44.494;11.356;2022-09-09T14:04:52;30.40;76.20
56761;DHT22;42633;44.494;11.356;2022-09-09T14:07:59;30.20;77.60
56761;DHT22;42633;44.494;11.356;2022-09-09T14:11:12;30.10;77.40
56761;DHT22;42633;44.494;11.356;2022-09-09T14:14:26;30.10;77.70
56761;DHT22;42633;44.494;11.356;2022-09-09T14:17:31;30.10;77.60
56761;DHT22;42633;44.494;11.356;2022-09-09T14:20:36;30.00;77.80
56761;DHT22;42633;44.494;11.356;2022-09-09T14:23:41;29.80;78.60
56761;DHT22;42633;44.494;11.356;2022-09-09T14:26:45;29.70;79.20
56761;DHT22;42633;44.494;11.356;2022-09-09T14:29:49;29.50;80.10
56761;DHT22;42633;44.494;11.356;2022-09-09T14:32:53;29.40;80.70
56761;DHT22;42633;44.494;11.356;2022-09-09T14:36:02;29.50;81.00
56761;DHT22;42633;44.494;11.356;2022-09-09T14:39:07;29.50;81.20
56761;DHT22;42633;44.494;11.356;2022-09-09T14:42:11;29.70;81.20
56761;DHT22;42633;44.494;11.356;2022-09-09T14:45:15;29.70;80.90
56761;DHT22;42633;44.494;11.356;2022-09-09T14:48:20;29.60;81.00
56761;DHT22;42633;44.494;11.356;2022-09-09T14:51:25;29.40;82.20
56761;DHT22;42633;44.494;11.356;2022-09-09T14:54:32;29.30;83.40
56761;DHT22;42633;44.494;11.356;2022-09-09T14:57:36;29.00;84.20
56761;DHT22;42633;44.494;11.356;2022-09-09T15:00:40;28.80;84.90
56761;DHT22;42633;44.494;11.356;2022-09-09T15:03:51;28.70;85.00
56761;DHT22;42633;44.494;11.356;2022-09-09T15:06:55;28.80;84.90
56761;DHT22;42633;44.494;11.356;2022-09-09T15:09:59;29.00;86.20
56761;DHT22;42633;44.494;11.356;2022-09-09T15:13:03;29.20;86.90
56761;DHT22;42633;44.494;11.356;2022-09-09T15:16:13;29.00;87.70
56761;DHT22;42633;44.494;11.356;2022-09-09T15:19:17;28.20;87.20
56761;DHT22;42633;44.494;11.356;2022-09-09T15:22:22;27.60;87.70
56761;DHT22;42633;44.494;11.356;2022-09-09T15:25:26;26.90;89.90
56761;DHT22;42633;44.494;11.356;2022-09-09T15:28:32;26.50;91.50
56761;DHT22;42633;44.494;11.356;2022-09-09T15:31:41;26.40;92.30
56761;DHT22;42633;44.494;11.356;2022-09-09T15:34:45;26.40;92.50
56761;DHT22;42633;44.494;11.356;2022-09-09T15:37:49;26.50;92.30
56761;DHT22;42633;44.494;11.356;2022-09-09T15:40:54;26.80;91.60
56761;DHT22;42633;44.494;11.356;2022-09-09T15:43:59;26.80;91.20
56761;DHT22;42633;44.494;11.356;2022-09-09T15:47:04;26.60;91.10
56761;DHT22;42633;44.494;11.356;2022-09-09T15:50:08;26.60;90.90
56761;DHT22;42633;44.494;11.356;2022-09-09T15:53:12;26.60;90.40
56761;DHT22;42633;44.494;11.356;2022-09-09T15:56:16;26.50;91.10
56761;DHT22;42633;44.494;11.356;2022-09-09T15:59:20;26.30;92.00
56761;DHT22;42633;44.494;11.356;2022-09-09T16:02:24;26.20;92.50
56761;DHT22;42633;44.494;11.356;2022-09-09T16:05:28;26.30;92.60
56761;DHT22;42633;44.494;11.356;2022-09-09T16:08:38;26.20;93.90
56761;DHT22;42633;44.494;11.356;2022-09-09T16:11:42;26.10;94.40
56761;DHT22;42633;44.494;11.356;2022-09-09T16:14:46;26.20;93.80
56761;DHT22;42633;44.494;11.356;2022-09-09T16:17:53;26.10;93.20
56761;DHT22;42633;44.494;11.356;2022-09-09T16:20:57;26.20;92.90
56761;DHT22;42633;44.494;11.356;2022-09-09T16:24:02;26.30;92.60
56761;DHT22;42633;44.494;11.356;2022-09-09T16:27:07;26.40;92.20
56761;DHT22;42633;44.494;11.356;2022-09-09T16:30:11;26.60;92.30
56761;DHT22;42633;44.494;11.356;2022-09-09T16:33:17;26.80;92.40
56761;DHT22;42633;44.494;11.356;2022-09-09T16:36:23;27.10;92.40
56761;DHT22;42633;44.494;11.356;2022-09-09T16:39:27;27.10;92.10
56761;DHT22;42633;44.494;11.356;2022-09-09T16:42:35;27.10;92.20
56761;DHT22;42633;44.494;11.356;2022-09-09T16:45:43;27.00;92.20
56761;DHT22;42633;44.494;11.356;2022-09-09T16:48:49;27.10;92.30
56761;DHT22;42633;44.494;11.356;2022-09-09T16:51:56;27.00;92.40
56761;DHT22;42633;44.494;11.356;2022-09-09T16:55:00;26.90;92.70
56761;DHT22;42633;44.494;11.356;2022-09-09T16:58:04;26.70;93.10
56761;DHT22;42633;44.494;11.356;2022-09-09T17:01:09;26.60;93.30
56761;DHT22;42633;44.494;11.356;2022-09-09T17:04:19;26.50;93.60
56761;DHT22;42633;44.494;11.356;2022-09-09T17:07:24;26.50;93.60
56761;DHT22;42633;44.494;11.356;2022-09-09T17:10:28;26.60;94.00
56761;DHT22;42633;44.494;11.356;2022-09-09T17:13:33;26.60;93.70
56761;DHT22;42633;44.494;11.356;2022-09-09T17:16:37;26.60;93.80
56761;DHT22;42633;44.494;11.356;2022-09-09T17:19:43;26.40;93.90
56761;DHT22;42633;44.494;11.356;2022-09-09T17:22:47;26.30;94.10
56761;DHT22;42633;44.494;11.356;2022-09-09T17:25:58;26.10;93.90
56761;DHT22;42633;44.494;11.356;2022-09-09T17:29:06;26.00;93.90
56761;DHT22;42633;44.494;11.356;2022-09-09T17:32:11;25.90;94.00
56761;DHT22;42633;44.494;11.356;2022-09-09T17:35:15;25.80;94.10
56761;DHT22;42633;44.494;11.356;2022-09-09T17:38:20;25.70;94.30
56761;DHT22;42633;44.494;11.356;2022-09-09T17:41:35;25.70;94.60
56761;DHT22;42633;44.494;11.356;2022-09-09T17:44:40;25.60;94.70
56761;DHT22;42633;44.494;11.356;2022-09-09T17:47:45;25.60;94.80
56761;DHT22;42633;44.494;11.356;2022-09-09T17:50:57;25.60;95.20
56761;DHT22;42633;44.494;11.356;2022-09-09T17:54:10;25.60;95.30
56761;DHT22;42633;44.494;11.356;2022-09-09T17:57:16;25.50;95.30
56761;DHT22;42633;44.494;11.356;2022-09-09T18:00:24;25.40;95.70
56761;DHT22;42633;44.494;11.356;2022-09-09T18:03:27;25.40;95.90
56761;DHT22;42633;44.494;11.356;2022-09-09T18:06:34;25.30;96.00
56761;DHT22;42633;44.494;11.356;2022-09-09T18:09:38;25.30;95.90
56761;DHT22;42633;44.494;11.356;2022-09-09T18:12:43;25.20;96.00
56761;DHT22;42633;44.494;11.356;2022-09-09T18:15:48;25.10;96.30
56761;DHT22;42633;44.494;11.356;2022-09-09T18:18:53;25.10;96.00
56761;DHT22;42633;44.494;11.356;2022-09-09T18:21:58;25.10;96.00
56761;DHT22;42633;44.494;11.356;2022-09-09T18:25:03;25.00;95.90
56761;DHT22;42633;44.494;11.356;2022-09-09T18:28:08;25.00;96.20
56761;DHT22;42633;44.494;11.356;2022-09-09T18:31:14;25.00;96.40
56761;DHT22;42633;44.494;11.356;2022-09-09T18:34:19;24.90;96.30
56761;DHT22;42633;44.494;11.356;2022-09-09T18:37:24;24.90;96.40
56761;DHT22;42633;44.494;11.356;2022-09-09T18:40:32;24.80;96.70
56761;DHT22;42633;44.494;11.356;2022-09-09T18:43:36;24.80;96.70
56761;DHT22;42633;44.494;11.356;2022-09-09T18:46:40;24.80;97.00
56761;DHT22;42633;44.494;11.356;2022-09-09T18:49:44;24.70;96.90
56761;DHT22;42633;44.494;11.356;2022-09-09T18:52:49;24.70;96.90
56761;DHT22;42633;44.494;11.356;2022-09-09T18:56:01;24.60;96.70
56761;DHT22;42633;44.494;11.356;2022-09-09T18:59:08;24.60;96.80
56761;DHT22;42633;44.494;11.356;2022-09-09T19:02:13;24.60;96.80
56761;DHT22;42633;44.494;11.356;2022-09-09T19:05:18;24.50;96.90
56761;DHT22;42633;44.494;11.356;2022-09-09T19:08:24;24.60;96.90
56761;DHT22;42633;44.494;11.356;2022-09-09T19:11:28;24.50;97.10
56761;DHT22;42633;44.494;11.356;2022-09-09T19:14:32;24.50;97.20
56761;DHT22;42633;44.494;11.356;2022-09-09T19:17:37;24.50;97.20
56761;DHT22;42633;44.494;11.356;2022-09-09T19:20:41;24.40;97.20
56761;DHT22;42633;44.494;11.356;2022-09-09T19:23:46;24.40;97.10
56761;DHT22;42633;44.494;11.356;2022-09-09T19:26:53;24.40;97.00
56761;DHT22;42633;44.494;11.356;2022-09-09T19:29:57;24.30;97.20
56761;DHT22;42633;44.494;11.356;2022-09-09T19:33:02;24.30;97.20
56761;DHT22;42633;44.494;11.356;2022-09-09T19:36:07;24.20;97.20
56761;DHT22;42633;44.494;11.356;2022-09-09T19:39:13;24.20;97.20
56761;DHT22;42633;44.494;11.356;2022-09-09T19:42:17;24.20;97.20
56761;DHT22;42633;44.494;11.356;2022-09-09T19:45:22;24.20;97.50
56761;DHT22;42633;44.494;11.356;2022-09-09T19:48:35;24.10;97.70
56761;DHT22;42633;44.494;11.356;2022-09-09T19:51:40;24.10;97.90
56761;DHT22;42633;44.494;11.356;2022-09-09T19:54:45;24.00;97.70
56761;DHT22;42633;44.494;11.356;2022-09-09T19:57:49;24.00;97.60
56761;DHT22;42633;44.494;11.356;2022-09-09T20:00:53;24.00;97.30
56761;DHT22;42633;44.494;11.356;2022-09-09T20:03:59;24.00;97.30
56761;DHT22;42633;44.494;11.356;2022-09-09T20:07:03;23.90;97.20
56761;DHT22;42633;44.494;11.356;2022-09-09T20:10:08;23.90;97.50
56761;DHT22;42633;44.494;11.356;2022-09-09T20:13:12;23.90;96.90
56761;DHT22;42633;44.494;11.356;2022-09-09T20:16:20;23.90;96.30
56761;DHT22;42633;44.494;11.356;2022-09-09T20:19:24;23.90;96.20
56761;DHT22;42633;44.494;11.356;2022-09-09T20:22:28;23.90;96.00
56761;DHT22;42633;44.494;11.356;2022-09-09T20:25:35;23.90;95.90
56761;DHT22;42633;44.494;11.356;2022-09-09T20:28:40;23.90;95.60
56761;DHT22;42633;44.494;11.356;2022-09-09T20:31:46;23.90;95.60
56761;DHT22;42633;44.494;11.356;2022-09-09T20:34:50;23.80;95.30
56761;DHT22;42633;44.494;11.356;2022-09-09T20:37:54;23.80;95.10
56761;DHT22;42633;44.494;11.356;2022-09-09T20:41:04;23.80;95.10
56761;DHT22;42633;44.494;11.356;2022-09-09T20:44:11;23.80;95.10
56761;DHT22;42633;44.494;11.356;2022-09-09T20:47:18;23.80;95.00
56761;DHT22;42633;44.494;11.356;2022-09-09T20:50:23;23.70;94.90
56761;DHT22;42633;44.494;11.356;2022-09-09T20:53:31;23.70;94.90
56761;DHT22;42633;44.494;11.356;2022-09-09T20:56:38;23.70;94.80
56761;DHT22;42633;44.494;11.356;2022-09-09T20:59:42;23.70;94.60
56761;DHT22;42633;44.494;11.356;2022-09-09T21:02:47;23.70;94.60
56761;DHT22;42633;44.494;11.356;2022-09-09T21:05:51;23.70;94.40